createdAt,value
2018-11-14T00:00:26.041Z,5.30
2018-11-14T00:02:55.083Z,5.07
2018-11-14T00:05:23.908Z,5.33
2018-11-14T00:07:52.832Z,4.60
2018-11-14T00:10:21.674Z,4.27
2018-11-14T00:12:57.099Z,5.23
2018-11-14T00:15:26.525Z,5.23
2018-11-14T00:17:55.537Z,4.80
2018-11-14T00:20:24.475Z,4.57
2018-11-14T00:22:53.273Z,4.87
2018-11-14T00:25:22.027Z,4.70
2018-11-14T00:27:50.869Z,5.27
2018-11-14T00:30:24.866Z,4.57
2018-11-14T00:32:53.961Z,5.03
2018-11-14T00:35:22.891Z,5.30
2018-11-14T00:37:51.990Z,5.10
2018-11-14T00:40:21.318Z,5.10
2018-11-14T00:42:50.360Z,5.30
2018-11-14T00:45:20.429Z,4.80
2018-11-14T00:47:49.788Z,4.93
2018-11-14T00:50:19.230Z,4.43
2018-11-14T00:52:48.032Z,4.90
2018-11-14T00:55:20.061Z,4.73
2018-11-14T00:57:49.741Z,5.07
2018-11-14T01:00:21.174Z,4.43
2018-11-14T01:02:49.997Z,5.07
2018-11-14T01:05:19.352Z,5.13
2018-11-14T01:07:48.274Z,5.10
2018-11-14T01:10:18.372Z,5.47
2018-11-14T01:12:47.786Z,6.23
2018-11-14T01:15:18.274Z,5.50
2018-11-14T01:17:47.073Z,5.73
2018-11-14T01:20:17.344Z,5.40
2018-11-14T01:22:46.667Z,5.40
2018-11-14T01:25:16.353Z,5.40
2018-11-14T01:27:45.432Z,5.47
2018-11-14T01:30:19.033Z,5.30
2018-11-14T01:32:48.349Z,5.50
2018-11-14T01:35:17.760Z,5.10
2018-11-14T01:37:46.609Z,4.90
2018-11-14T01:40:18.314Z,4.90
2018-11-14T01:42:48.527Z,5.00
2018-11-14T01:45:17.580Z,5.87
2018-11-14T01:47:46.453Z,6.07
2018-11-14T01:50:15.435Z,5.47
2018-11-14T01:52:44.363Z,5.57
2018-11-14T01:55:16.520Z,5.47
2018-11-14T01:57:45.551Z,5.77
2018-11-14T02:00:16.222Z,5.63
2018-11-14T02:02:45.042Z,5.57
2018-11-14T02:05:13.917Z,5.97
2018-11-14T02:07:42.982Z,5.70
2018-11-14T02:10:13.365Z,6.80
2018-11-14T02:12:42.623Z,5.80
2018-11-14T02:15:13.803Z,6.57
2018-11-14T02:17:42.573Z,5.90
2018-11-14T02:20:12.014Z,5.00
2018-11-14T02:22:41.442Z,5.50
2018-11-14T02:25:11.056Z,5.20
2018-11-14T02:27:39.945Z,6.23
2018-11-14T02:30:12.850Z,6.07
2018-11-14T02:32:41.666Z,6.43
2018-11-14T02:35:10.842Z,6.33
2018-11-14T02:37:40.574Z,6.60
2018-11-14T02:40:11.512Z,6.50
2018-11-14T02:42:40.553Z,7.13
2018-11-14T02:45:09.742Z,6.30
2018-11-14T02:47:38.468Z,6.67
2018-11-14T02:50:08.929Z,6.67
2018-11-14T02:52:37.720Z,6.87
2018-11-14T02:55:07.897Z,6.33
2018-11-14T02:57:36.711Z,7.10
2018-11-14T03:00:07.912Z,6.77
2018-11-14T03:02:37.002Z,7.30
2018-11-14T03:05:06.511Z,7.47
2018-11-14T03:07:35.635Z,7.30
2018-11-14T03:10:04.861Z,7.43
2018-11-14T03:12:34.316Z,6.97
2018-11-14T03:15:03.043Z,6.73
2018-11-14T03:17:31.880Z,7.27
2018-11-14T03:20:00.753Z,8.67
2018-11-14T03:22:29.576Z,7.20
2018-11-14T03:24:58.411Z,7.03
2018-11-14T03:27:27.427Z,7.23
2018-11-14T03:29:56.311Z,7.53
2018-11-14T03:32:25.148Z,7.87
2018-11-14T03:34:53.968Z,7.00
2018-11-14T03:37:23.019Z,7.20
2018-11-14T03:39:51.893Z,6.80
2018-11-14T03:42:20.824Z,6.73
2018-11-14T03:44:49.629Z,7.23
2018-11-14T03:47:18.468Z,6.77
2018-11-14T03:49:47.243Z,6.37
2018-11-14T03:52:16.234Z,6.40
2018-11-14T03:54:45.013Z,6.47
2018-11-14T03:57:13.987Z,7.27
2018-11-14T03:59:42.907Z,7.37
2018-11-14T04:02:11.751Z,7.20
2018-11-14T04:04:41.449Z,8.30
2018-11-14T04:07:10.312Z,7.90
2018-11-14T04:09:39.224Z,7.43
2018-11-14T04:12:08.851Z,7.60
2018-11-14T04:14:37.638Z,8.10
2018-11-14T04:17:06.476Z,7.33
2018-11-14T04:19:35.270Z,8.23
2018-11-14T04:22:04.042Z,7.50
2018-11-14T04:24:32.833Z,8.53
2018-11-14T04:27:01.584Z,7.47
2018-11-14T04:29:30.415Z,7.80
2018-11-14T04:31:59.395Z,7.30
2018-11-14T04:34:28.436Z,7.90
2018-11-14T04:36:57.263Z,8.37
2018-11-14T04:39:26.061Z,8.27
2018-11-14T04:41:55.146Z,8.83
2018-11-14T04:44:24.010Z,9.30
2018-11-14T04:46:53.114Z,9.07
2018-11-14T04:49:21.901Z,10.03
2018-11-14T04:51:50.649Z,9.67
2018-11-14T04:54:20.085Z,9.67
2018-11-14T04:56:49.388Z,9.20
2018-11-14T04:59:18.192Z,9.30
2018-11-14T05:01:46.964Z,9.93
2018-11-14T05:04:15.737Z,9.00
2018-11-14T05:06:44.559Z,9.27
2018-11-14T05:09:13.619Z,9.50
2018-11-14T05:11:42.791Z,9.17
2018-11-14T05:14:11.768Z,9.80
2018-11-14T05:16:40.574Z,9.63
2018-11-14T05:19:09.494Z,9.77
2018-11-14T05:21:38.251Z,9.57
2018-11-14T05:24:07.232Z,9.43
2018-11-14T05:26:36.045Z,10.07
2018-11-14T05:29:04.884Z,9.77
2018-11-14T05:31:33.695Z,10.53
2018-11-14T05:34:02.507Z,10.13
2018-11-14T05:36:31.287Z,10.80
2018-11-14T05:39:00.266Z,11.37
2018-11-14T05:41:29.141Z,9.67
2018-11-14T05:43:58.226Z,11.47
2018-11-14T05:46:27.542Z,12.20
2018-11-14T05:48:56.554Z,11.17
2018-11-14T05:51:25.403Z,12.90
2018-11-14T05:53:54.143Z,12.43
2018-11-14T05:56:22.882Z,14.90
2018-11-14T05:58:51.746Z,13.17
2018-11-14T06:01:20.597Z,14.30
2018-11-14T06:03:49.388Z,15.20
2018-11-14T06:06:18.309Z,15.47
2018-11-14T06:08:47.286Z,15.83
2018-11-14T06:11:16.089Z,15.47
2018-11-14T06:13:44.909Z,16.30
2018-11-14T06:16:13.634Z,16.50
2018-11-14T06:18:42.607Z,16.20
2018-11-14T06:21:11.380Z,17.03
2018-11-14T06:23:40.300Z,16.77
2018-11-14T06:26:09.050Z,17.17
2018-11-14T06:28:37.812Z,15.70
2018-11-14T06:31:06.633Z,16.53
2018-11-14T06:33:35.423Z,16.40
2018-11-14T06:36:04.883Z,16.67
2018-11-14T06:38:33.731Z,16.87
2018-11-14T06:41:02.577Z,16.07
2018-11-14T06:43:31.441Z,15.63
2018-11-14T06:46:00.449Z,16.93
2018-11-14T06:48:29.226Z,14.93
2018-11-14T06:50:58.264Z,14.77
2018-11-14T06:53:27.274Z,15.37
2018-11-14T06:55:56.093Z,14.17
2018-11-14T06:58:24.979Z,15.90
2018-11-14T07:00:54.008Z,14.70
2018-11-14T07:03:22.863Z,13.33
2018-11-14T07:05:51.785Z,14.27
2018-11-14T07:08:20.512Z,13.73
2018-11-14T07:10:50.169Z,14.23
2018-11-14T07:13:18.942Z,13.80
2018-11-14T07:15:47.844Z,14.37
2018-11-14T07:18:16.811Z,15.43
2018-11-14T07:20:45.888Z,13.43
2018-11-14T07:23:14.853Z,15.33
2018-11-14T07:25:43.628Z,13.17
2018-11-14T07:31:33.763Z,14.77
2018-11-14T07:34:02.761Z,14.33
2018-11-14T07:36:32.101Z,14.17
2018-11-14T07:39:02.462Z,15.27
2018-11-14T07:41:37.739Z,14.13
2018-11-14T07:44:07.070Z,13.50
2018-11-14T07:46:36.669Z,14.57
2018-11-14T07:49:06.574Z,13.90
2018-11-14T07:51:35.627Z,14.50
2018-11-14T07:54:04.581Z,14.73
2018-11-14T07:56:34.039Z,15.60
2018-11-14T07:59:03.190Z,13.20
2018-11-14T08:01:32.212Z,13.37
2018-11-14T08:04:01.212Z,13.33
2018-11-14T08:06:30.281Z,13.87
2018-11-14T08:08:59.083Z,13.00
2018-11-14T08:11:28.013Z,13.17
2018-11-14T08:13:57.251Z,12.87
2018-11-14T08:16:26.120Z,12.60
2018-11-14T08:18:55.197Z,12.70
2018-11-14T08:21:24.155Z,12.93
2018-11-14T08:23:53.159Z,12.90
2018-11-14T08:26:22.395Z,12.67
2018-11-14T08:28:51.617Z,13.17
2018-11-14T08:31:20.863Z,12.73
2018-11-14T08:33:50.169Z,13.00
2018-11-14T08:36:19.483Z,12.70
2018-11-14T08:38:48.440Z,12.83
2018-11-14T08:41:17.303Z,12.43
2018-11-14T08:43:46.083Z,12.33
2018-11-14T08:46:14.985Z,13.10
2018-11-14T08:48:44.130Z,12.60
2018-11-14T08:51:13.011Z,13.20
2018-11-14T08:53:42.183Z,12.73
2018-11-14T08:56:11.089Z,11.90
2018-11-14T08:58:40.145Z,12.10
2018-11-14T09:01:09.693Z,11.87
2018-11-14T09:03:38.670Z,11.43
2018-11-14T09:06:07.577Z,11.63
2018-11-14T09:08:36.368Z,11.63
2018-11-14T09:11:05.824Z,11.13
2018-11-14T09:13:34.845Z,11.93
2018-11-14T09:16:04.154Z,11.30
2018-11-14T09:18:33.423Z,11.20
2018-11-14T09:21:02.512Z,11.47
2018-11-14T09:23:31.750Z,11.10
2018-11-14T09:26:01.903Z,11.23
2018-11-14T09:28:31.293Z,11.37
2018-11-14T09:31:00.500Z,11.23
2018-11-14T09:33:29.792Z,11.87
2018-11-14T09:35:58.774Z,11.40
2018-11-14T09:38:28.242Z,10.40
2018-11-14T09:40:57.490Z,10.50
2018-11-14T09:43:26.659Z,10.10
2018-11-14T09:45:55.936Z,9.70
2018-11-14T09:48:25.626Z,10.07
2018-11-14T09:50:54.663Z,10.60
2018-11-14T09:53:24.086Z,9.57
2018-11-14T09:55:53.402Z,8.97
2018-11-14T09:58:22.695Z,10.13
2018-11-14T10:00:52.113Z,9.67
2018-11-14T10:03:21.469Z,8.83
2018-11-14T10:05:50.909Z,8.70
2018-11-14T10:08:20.079Z,7.70
2018-11-14T10:10:49.373Z,7.67
2018-11-14T10:13:18.734Z,7.93
2018-11-14T10:15:48.166Z,7.30
2018-11-14T10:18:18.136Z,5.83
2018-11-14T10:20:47.461Z,6.07
2018-11-14T10:23:17.511Z,6.70
2018-11-14T10:25:46.580Z,6.40
2018-11-14T10:28:15.804Z,6.00
2018-11-14T10:30:45.340Z,5.90
2018-11-14T10:33:14.902Z,5.53
2018-11-14T10:35:44.011Z,5.50
2018-11-14T10:38:13.020Z,5.50
2018-11-14T10:40:42.448Z,5.47
2018-11-14T10:43:11.529Z,6.13
2018-11-14T10:45:40.622Z,5.77
2018-11-14T10:48:09.667Z,5.20
2018-11-14T10:50:38.603Z,5.90
2018-11-14T10:53:07.607Z,5.40
2018-11-14T10:55:36.601Z,5.20
2018-11-14T10:58:06.000Z,5.63
2018-11-14T11:00:40.195Z,5.10
2018-11-14T11:03:14.593Z,5.23
2018-11-14T11:05:49.026Z,5.37
2018-11-14T11:08:25.056Z,5.43
2018-11-14T11:10:59.245Z,4.83
2018-11-14T11:13:33.415Z,4.80
2018-11-14T11:16:07.823Z,5.00
2018-11-14T11:18:37.120Z,4.27
2018-11-14T11:21:06.296Z,4.53
2018-11-14T11:23:35.641Z,4.67
2018-11-14T11:26:04.632Z,4.30
2018-11-14T11:28:33.551Z,4.90
2018-11-14T11:31:02.692Z,4.43
2018-11-14T11:33:31.478Z,4.37
2018-11-14T11:36:00.552Z,4.03
2018-11-14T11:38:29.588Z,4.57
2018-11-14T11:40:58.962Z,4.17
2018-11-14T11:43:28.158Z,5.20
2018-11-14T11:45:57.321Z,4.60
2018-11-14T11:48:26.617Z,4.63
2018-11-14T11:50:55.534Z,4.50
2018-11-14T11:53:24.506Z,5.20
2018-11-14T11:55:53.711Z,4.83
2018-11-14T11:58:22.920Z,4.97
2018-11-14T12:00:52.120Z,5.40
2018-11-14T12:03:21.106Z,4.50
2018-11-14T12:05:50.178Z,4.33
2018-11-14T12:08:19.082Z,5.10
2018-11-14T12:10:48.142Z,4.57
2018-11-14T12:13:17.189Z,4.37
2018-11-14T12:15:46.277Z,4.40
2018-11-14T12:18:15.296Z,4.67
2018-11-14T12:20:44.353Z,4.27
2018-11-14T12:23:13.200Z,5.43
2018-11-14T12:25:42.270Z,4.73
2018-11-14T12:28:11.684Z,4.70
2018-11-14T12:30:40.814Z,5.77
2018-11-14T12:33:09.790Z,4.77
2018-11-14T12:35:39.202Z,4.70
2018-11-14T12:38:08.505Z,4.67
2018-11-14T12:40:37.467Z,4.87
2018-11-14T12:43:07.351Z,4.90
2018-11-14T12:45:36.574Z,5.93
2018-11-14T12:48:06.123Z,4.90
2018-11-14T12:50:35.159Z,5.50
2018-11-14T12:53:04.247Z,5.07
2018-11-14T12:55:33.323Z,4.50
2018-11-14T12:58:02.641Z,4.77
2018-11-14T13:00:31.733Z,4.40
2018-11-14T13:03:00.780Z,4.10
2018-11-14T13:05:29.996Z,4.10
2018-11-14T13:07:58.997Z,3.77
2018-11-14T13:10:28.066Z,3.87
2018-11-14T13:12:57.272Z,4.40
2018-11-14T13:15:26.473Z,3.53
2018-11-14T13:17:55.490Z,3.87
2018-11-14T13:20:25.253Z,3.60
2018-11-14T13:22:54.385Z,3.43
2018-11-14T13:25:23.403Z,3.97
2018-11-14T13:27:52.540Z,3.90
2018-11-14T13:30:23.650Z,3.90
2018-11-14T13:32:53.222Z,3.63
2018-11-14T13:35:23.200Z,3.57
2018-11-14T13:37:52.600Z,4.63
2018-11-14T13:40:21.894Z,3.83
2018-11-14T13:42:51.124Z,3.77
2018-11-14T13:45:20.373Z,3.53
2018-11-14T13:47:49.554Z,3.90
2018-11-14T13:50:20.818Z,4.27
2018-11-14T13:52:49.920Z,4.33
2018-11-14T13:55:19.738Z,4.03
2018-11-14T13:57:50.162Z,4.13
2018-11-14T14:00:20.828Z,3.53
2018-11-14T14:02:51.240Z,3.40
2018-11-14T14:05:21.973Z,3.63
2018-11-14T14:07:51.622Z,3.97
2018-11-14T14:10:21.021Z,3.63
2018-11-14T14:12:51.760Z,4.10
2018-11-14T14:15:22.526Z,3.43
2018-11-14T14:17:52.084Z,3.77
2018-11-14T14:20:21.784Z,3.53
2018-11-14T14:22:50.933Z,3.70
2018-11-14T14:25:21.395Z,3.30
2018-11-14T14:27:50.489Z,3.43
2018-11-14T14:30:20.907Z,4.13
2018-11-14T14:32:50.261Z,2.93
2018-11-14T14:35:20.621Z,3.73
2018-11-14T14:37:50.096Z,3.33
2018-11-14T14:40:20.936Z,3.30
2018-11-14T14:42:49.895Z,3.50
2018-11-14T14:45:22.149Z,3.13
2018-11-14T14:47:52.414Z,4.23
2018-11-14T14:50:21.685Z,3.80
2018-11-14T14:52:51.118Z,4.80
2018-11-14T14:55:23.670Z,4.13
2018-11-14T14:57:52.664Z,4.47
2018-11-14T15:00:22.934Z,4.60
2018-11-14T15:02:52.284Z,4.60
2018-11-14T15:05:21.576Z,5.60
2018-11-14T15:07:50.600Z,5.10
2018-11-14T15:10:20.891Z,4.90
2018-11-14T15:12:49.987Z,5.33
2018-11-14T15:15:19.571Z,4.73
2018-11-14T15:17:48.580Z,4.77
2018-11-14T15:20:20.934Z,4.03
2018-11-14T15:22:50.241Z,4.73
2018-11-14T15:25:20.559Z,5.10
2018-11-14T15:27:50.087Z,4.73
2018-11-14T15:30:23.816Z,4.57
2018-11-14T15:32:52.938Z,4.83
2018-11-14T15:35:22.065Z,5.40
2018-11-14T15:37:51.245Z,4.77
2018-11-14T15:40:21.344Z,4.47
2018-11-14T15:42:50.574Z,4.63
2018-11-14T15:45:21.991Z,5.07
2018-11-14T15:47:51.278Z,5.50
2018-11-14T15:50:21.649Z,4.50
2018-11-14T15:52:51.735Z,5.40
2018-11-14T15:55:21.608Z,4.50
2018-11-14T15:57:51.036Z,4.70
2018-11-14T16:00:21.490Z,4.70
2018-11-14T16:02:50.777Z,5.60
2018-11-14T16:05:21.441Z,5.10
2018-11-14T16:07:51.830Z,5.60
2018-11-14T16:10:21.935Z,5.83
2018-11-14T16:12:50.880Z,6.43
2018-11-14T16:15:21.482Z,5.60
2018-11-14T16:17:50.276Z,5.63
2018-11-14T16:20:20.638Z,5.87
2018-11-14T16:22:49.473Z,5.23
2018-11-14T16:25:19.461Z,6.13
2018-11-14T16:27:49.082Z,6.47
2018-11-14T16:30:21.108Z,6.30
2018-11-14T16:32:51.331Z,6.30
2018-11-14T16:35:20.119Z,6.10
2018-11-14T16:37:48.887Z,6.03
2018-11-14T16:40:20.851Z,5.47
2018-11-14T16:42:50.639Z,5.57
2018-11-14T16:45:19.637Z,6.77
2018-11-14T16:47:48.369Z,6.83
2018-11-14T16:50:18.541Z,7.50
2018-11-14T16:52:47.355Z,7.60
2018-11-14T16:55:17.575Z,6.90
2018-11-14T16:57:47.613Z,7.53
2018-11-14T17:00:19.589Z,7.13
2018-11-14T17:02:48.653Z,7.47
2018-11-14T17:05:18.123Z,7.17
2018-11-14T17:07:47.423Z,8.23
2018-11-14T17:10:17.665Z,8.90
2018-11-14T17:12:47.443Z,8.20
2018-11-14T17:15:21.674Z,8.63
2018-11-14T17:17:50.543Z,8.47
2018-11-14T17:20:20.663Z,8.80
2018-11-14T17:22:50.252Z,9.47
2018-11-14T17:25:19.616Z,9.03
2018-11-14T17:27:48.730Z,8.97
2018-11-14T17:30:19.451Z,9.80
2018-11-14T17:32:48.333Z,8.97
2018-11-14T17:35:17.678Z,8.87
2018-11-14T17:37:47.004Z,10.07
2018-11-14T17:40:18.373Z,8.70
2018-11-14T17:42:47.853Z,8.10
2018-11-14T17:45:18.248Z,8.13
2018-11-14T17:47:47.477Z,8.63
2018-11-14T17:50:20.358Z,8.97
2018-11-14T17:52:50.257Z,8.80
2018-11-14T17:55:20.124Z,9.50
2018-11-14T17:57:49.027Z,9.67
2018-11-14T18:00:19.447Z,8.70
2018-11-14T18:02:48.708Z,9.80
2018-11-14T18:05:18.957Z,9.43
2018-11-14T18:07:48.425Z,9.40
2018-11-14T18:10:18.289Z,9.57
2018-11-14T18:12:48.307Z,10.50
2018-11-14T18:15:17.470Z,11.13
2018-11-14T18:17:46.669Z,9.67
2018-11-14T18:20:17.706Z,10.00
2018-11-14T18:22:47.109Z,10.13
2018-11-14T18:25:16.233Z,10.03
2018-11-14T18:27:45.095Z,11.77
2018-11-14T18:30:19.181Z,10.77
2018-11-14T18:32:47.947Z,10.80
2018-11-14T18:35:17.645Z,11.63
2018-11-14T18:37:48.334Z,11.33
2018-11-14T18:40:18.965Z,10.60
2018-11-14T18:42:48.790Z,10.27
2018-11-14T18:45:20.863Z,10.53
2018-11-14T18:47:50.381Z,11.17
2018-11-14T18:50:19.957Z,9.97
2018-11-14T18:52:49.348Z,11.00
2018-11-14T18:55:19.375Z,10.70
2018-11-14T18:57:48.413Z,10.57
2018-11-14T19:00:19.611Z,11.40
2018-11-14T19:02:48.440Z,10.77
2018-11-14T19:05:18.154Z,11.70
2018-11-14T19:07:47.199Z,10.97
2018-11-14T19:10:17.996Z,11.17
2018-11-14T19:12:47.380Z,11.53
2018-11-14T19:15:18.839Z,11.60
2018-11-14T19:17:47.639Z,11.23
2018-11-14T19:20:19.524Z,11.57
2018-11-14T19:22:48.589Z,11.30
2018-11-14T19:25:18.778Z,11.50
2018-11-14T19:27:48.323Z,12.43
2018-11-14T19:30:18.440Z,11.73
2018-11-14T19:32:48.334Z,11.23
2018-11-14T19:35:17.325Z,11.30
2018-11-14T19:37:47.475Z,12.67
2018-11-14T19:40:21.590Z,12.23
2018-11-14T19:42:52.745Z,10.90
2018-11-14T19:45:23.941Z,10.80
2018-11-14T19:47:53.218Z,11.37
2018-11-14T19:50:22.499Z,11.40
2018-11-14T19:52:51.812Z,11.17
2018-11-14T19:55:21.937Z,11.03
2018-11-14T19:57:52.247Z,11.97
2018-11-14T20:00:23.547Z,11.70
2018-11-14T20:02:52.701Z,12.27
2018-11-14T20:05:21.864Z,13.33
2018-11-14T20:07:50.953Z,12.53
2018-11-14T20:10:22.033Z,13.30
2018-11-14T20:12:51.262Z,13.23
2018-11-14T20:15:27.960Z,14.83
2018-11-14T20:17:56.741Z,15.17
2018-11-14T20:20:29.212Z,15.23
2018-11-14T20:22:58.677Z,16.50
2018-11-14T20:25:27.552Z,16.27
2018-11-14T20:27:56.468Z,16.80
2018-11-14T20:30:29.336Z,15.97
2018-11-14T20:32:59.662Z,15.87
2018-11-14T20:35:28.875Z,17.20
2018-11-14T20:37:57.689Z,17.07
2018-11-14T20:40:26.822Z,17.13
2018-11-14T20:42:56.073Z,15.93
2018-11-14T20:45:27.365Z,16.80
2018-11-14T20:47:56.322Z,17.33
2018-11-14T20:50:26.018Z,18.03
2018-11-14T20:52:56.775Z,17.33
2018-11-14T20:55:25.426Z,17.03
2018-11-14T20:57:54.152Z,17.77
2018-11-14T21:00:25.289Z,18.27
2018-11-14T21:02:54.508Z,18.77
2018-11-14T21:05:23.870Z,18.83
2018-11-14T21:07:52.817Z,20.93
2018-11-14T21:10:22.923Z,19.47
2018-11-14T21:12:52.304Z,19.20
2018-11-14T21:15:22.503Z,20.93
2018-11-14T21:17:52.026Z,20.20
2018-11-14T21:20:20.703Z,20.30
2018-11-14T21:22:49.466Z,18.40
2018-11-14T21:25:19.235Z,19.87
2018-11-14T21:27:48.489Z,19.17
2018-11-14T21:30:18.426Z,21.53
2018-11-14T21:32:47.115Z,20.83
2018-11-14T21:35:18.349Z,21.23
2018-11-14T21:37:48.398Z,21.10
2018-11-14T21:40:17.280Z,21.77
2018-11-14T21:42:45.952Z,20.07
2018-11-14T21:45:16.180Z,20.47
2018-11-14T21:47:50.324Z,21.13
2018-11-14T21:50:20.187Z,21.23
2018-11-14T21:52:49.280Z,20.30
2018-11-14T21:55:18.348Z,20.50
2018-11-14T21:57:47.068Z,21.30
2018-11-14T22:00:18.261Z,20.87
2018-11-14T22:02:48.383Z,21.33
2018-11-14T22:05:17.088Z,21.50
2018-11-14T22:07:46.602Z,20.70
2018-11-14T22:10:16.949Z,21.27
2018-11-14T22:12:46.052Z,20.57
2018-11-14T22:15:15.739Z,19.50
2018-11-14T22:17:44.422Z,20.97
2018-11-14T22:20:14.418Z,20.97
2018-11-14T22:22:43.895Z,20.40
2018-11-14T22:25:13.760Z,20.70
2018-11-14T22:27:42.581Z,21.30
2018-11-14T22:30:18.055Z,20.87
2018-11-14T22:32:46.787Z,20.93
2018-11-14T22:35:16.738Z,21.33
2018-11-14T22:37:45.394Z,21.60
2018-11-14T22:40:16.718Z,21.40
2018-11-14T22:42:45.802Z,21.53
2018-11-14T22:45:22.992Z,20.77
2018-11-14T22:47:51.758Z,21.43
2018-11-14T22:50:23.498Z,20.97
2018-11-14T22:52:52.632Z,21.20
2018-11-14T22:55:22.555Z,21.27
2018-11-14T22:57:52.065Z,20.37
2018-11-14T23:00:45.088Z,20.73
2018-11-14T23:03:13.791Z,21.97
2018-11-14T23:05:42.474Z,22.00
2018-11-14T23:08:11.132Z,21.67
2018-11-14T23:10:39.847Z,21.10
2018-11-14T23:13:08.639Z,22.60
2018-11-14T23:15:37.586Z,19.97
2018-11-14T23:18:06.545Z,19.97
2018-11-14T23:20:35.238Z,20.27
2018-11-14T23:23:04.043Z,20.10
2018-11-14T23:25:32.875Z,19.60
2018-11-14T23:28:01.393Z,21.50
2018-11-14T23:30:30.244Z,20.87
2018-11-14T23:32:58.866Z,18.77
2018-11-14T23:35:29.940Z,20.93
2018-11-14T23:37:59.991Z,19.67
2018-11-14T23:40:29.045Z,20.23
2018-11-14T23:42:57.761Z,19.80
2018-11-14T23:45:27.178Z,19.03
2018-11-14T23:47:55.839Z,20.40
2018-11-14T23:50:28.905Z,19.67
2018-11-14T23:52:58.660Z,19.77
2018-11-14T23:55:28.305Z,20.57
2018-11-14T23:57:57.355Z,18.83
